createdAt,value
2018-08-18T00:01:05.868Z,3.57
2018-08-18T00:02:11.633Z,4.30
2018-08-18T00:03:17.186Z,4.30
2018-08-18T00:04:37.542Z,4.50
2018-08-18T00:05:43.059Z,3.53
2018-08-18T00:06:48.786Z,4.00
2018-08-18T00:07:54.300Z,4.30
2018-08-18T00:08:59.734Z,4.73
2018-08-18T00:10:08.636Z,4.10
2018-08-18T00:11:14.189Z,4.83
2018-08-18T00:12:24.918Z,4.33
2018-08-18T00:13:31.627Z,4.07
2018-08-18T00:14:37.129Z,4.27
2018-08-18T00:15:42.647Z,4.00
2018-08-18T00:16:48.277Z,4.30
2018-08-18T00:17:53.821Z,5.40
2018-08-18T00:19:00.496Z,5.30
2018-08-18T00:20:23.525Z,3.70
2018-08-18T00:21:33.976Z,3.70
2018-08-18T00:22:39.543Z,4.63
2018-08-18T00:24:00.116Z,3.97
2018-08-18T00:25:06.814Z,4.23
2018-08-18T00:26:12.425Z,3.97
2018-08-18T00:27:18.270Z,3.60
2018-08-18T00:28:25.845Z,3.97
2018-08-18T00:29:31.398Z,3.37
2018-08-18T00:30:37.373Z,4.40
2018-08-18T00:31:44.756Z,4.20
2018-08-18T00:32:50.313Z,4.10
2018-08-18T00:33:56.300Z,3.50
2018-08-18T00:35:01.893Z,4.13
2018-08-18T00:36:07.373Z,4.60
2018-08-18T00:37:13.333Z,3.77
2018-08-18T00:38:19.035Z,5.33
2018-08-18T00:39:24.921Z,4.53
2018-08-18T00:40:30.362Z,4.80
2018-08-18T00:41:36.077Z,5.10
2018-08-18T00:42:41.831Z,4.70
2018-08-18T00:43:49.667Z,4.20
2018-08-18T00:44:55.139Z,5.10
2018-08-18T00:46:00.633Z,5.30
2018-08-18T00:47:06.229Z,5.37
2018-08-18T00:48:11.751Z,5.10
2018-08-18T00:49:17.202Z,5.03
2018-08-18T00:50:36.622Z,5.50
2018-08-18T00:51:42.852Z,4.57
2018-08-18T00:52:48.290Z,4.20
2018-08-18T00:53:53.752Z,4.80
2018-08-18T00:54:59.156Z,4.50
2018-08-18T00:56:05.937Z,4.60
2018-08-18T00:57:25.529Z,4.37
2018-08-18T00:58:31.339Z,5.40
2018-08-18T00:59:42.553Z,4.10
2018-08-18T01:00:53.345Z,5.07
2018-08-18T01:01:58.760Z,4.50
2018-08-18T01:03:04.347Z,5.10
2018-08-18T01:04:10.445Z,5.50
2018-08-18T01:05:15.973Z,5.30
2018-08-18T01:06:24.421Z,5.63
2018-08-18T01:07:31.388Z,5.13
2018-08-18T01:08:36.829Z,5.50
2018-08-18T01:09:44.632Z,5.33
2018-08-18T01:10:50.113Z,5.70
2018-08-18T01:11:55.635Z,5.80
2018-08-18T01:13:01.167Z,5.70
2018-08-18T01:14:13.875Z,5.30
2018-08-18T01:15:33.688Z,6.53
2018-08-18T01:16:53.648Z,5.40
2018-08-18T01:17:59.100Z,6.40
2018-08-18T01:19:04.600Z,6.43
2018-08-18T01:20:10.109Z,5.80
2018-08-18T01:21:15.538Z,6.10
2018-08-18T01:22:21.033Z,6.63
2018-08-18T01:23:26.528Z,6.90
2018-08-18T01:24:32.030Z,6.43
2018-08-18T01:25:37.505Z,6.40
2018-08-18T01:26:43.171Z,6.50
2018-08-18T01:27:53.048Z,7.87
2018-08-18T01:29:13.048Z,7.33
2018-08-18T01:30:18.556Z,7.87
2018-08-18T01:31:25.316Z,8.47
2018-08-18T01:32:32.762Z,8.63
2018-08-18T01:33:38.928Z,8.33
2018-08-18T01:34:44.353Z,9.00
2018-08-18T01:35:49.901Z,8.07
2018-08-18T01:36:55.317Z,9.30
2018-08-18T01:38:01.053Z,7.93
2018-08-18T01:39:10.887Z,7.57
2018-08-18T01:40:16.465Z,7.50
2018-08-18T01:41:26.259Z,7.87
2018-08-18T01:42:33.919Z,8.37
2018-08-18T01:43:39.342Z,7.60
2018-08-18T01:44:44.998Z,7.77
2018-08-18T01:45:50.482Z,8.03
2018-08-18T01:46:55.920Z,8.07
2018-08-18T01:48:01.333Z,7.80
2018-08-18T01:49:34.681Z,8.57
2018-08-18T01:50:40.126Z,8.43
2018-08-18T01:51:45.691Z,7.77
2018-08-18T01:52:51.173Z,8.67
2018-08-18T01:53:56.601Z,9.47
2018-08-18T01:55:02.029Z,8.57
2018-08-18T01:56:07.468Z,8.83
2018-08-18T01:57:13.540Z,8.63
2018-08-18T01:58:19.053Z,8.27
2018-08-18T01:59:25.137Z,8.80
2018-08-18T02:00:30.713Z,8.23
2018-08-18T02:01:36.115Z,8.80
2018-08-18T02:02:41.609Z,8.30
2018-08-18T02:03:47.082Z,10.03
2018-08-18T02:04:53.144Z,8.77
2018-08-18T02:05:58.559Z,9.07
2018-08-18T02:07:33.768Z,9.37
2018-08-18T02:08:58.530Z,8.40
2018-08-18T02:10:04.981Z,9.20
2018-08-18T02:11:10.405Z,8.97
2018-08-18T02:12:16.053Z,8.90
2018-08-18T02:13:21.524Z,9.93
2018-08-18T02:14:26.977Z,10.50
2018-08-18T02:15:32.924Z,10.10
2018-08-18T02:16:38.396Z,9.37
2018-08-18T02:17:43.948Z,10.47
2018-08-18T02:18:49.397Z,9.50
2018-08-18T02:19:55.359Z,10.90
2018-08-18T02:21:00.750Z,9.30
2018-08-18T02:22:06.300Z,10.73
2018-08-18T02:23:13.376Z,9.40
2018-08-18T02:24:18.825Z,10.77
2018-08-18T02:25:24.326Z,10.83
2018-08-18T02:26:29.760Z,10.40
2018-08-18T02:27:35.383Z,11.20
2018-08-18T02:28:41.257Z,11.10
2018-08-18T02:30:04.373Z,10.80
2018-08-18T02:31:09.862Z,10.73
2018-08-18T02:32:28.357Z,10.47
2018-08-18T02:33:33.889Z,10.80
2018-08-18T02:34:39.344Z,11.47
2018-08-18T02:35:44.805Z,11.47
2018-08-18T02:36:50.272Z,9.60
2018-08-18T02:37:55.673Z,10.73
2018-08-18T02:39:02.044Z,11.33
2018-08-18T02:40:12.205Z,11.40
2018-08-18T02:41:17.630Z,11.27
2018-08-18T02:42:23.037Z,11.20
2018-08-18T02:43:28.532Z,10.90
2018-08-18T02:44:33.993Z,12.73
2018-08-18T02:45:39.136Z,11.90
2018-08-18T02:46:44.448Z,11.43
2018-08-18T02:47:59.325Z,11.67
2018-08-18T02:49:05.129Z,11.60
2018-08-18T02:50:11.544Z,11.60
2018-08-18T02:51:16.528Z,11.27
2018-08-18T02:52:24.862Z,11.00
2018-08-18T02:53:29.976Z,12.20
2018-08-18T02:54:39.548Z,10.93
2018-08-18T02:55:44.597Z,11.43
2018-08-18T02:56:49.656Z,10.73
2018-08-18T02:57:54.728Z,11.33
2018-08-18T02:59:02.397Z,12.27
2018-08-18T03:00:29.100Z,11.83
2018-08-18T03:01:39.281Z,10.60
2018-08-18T03:02:44.280Z,11.70
2018-08-18T03:03:49.317Z,10.73
2018-08-18T03:04:54.319Z,11.30
2018-08-18T03:06:04.743Z,10.17
2018-08-18T03:07:10.690Z,10.40
2018-08-18T03:08:16.132Z,10.40
2018-08-18T03:09:21.557Z,10.23
2018-08-18T03:10:28.005Z,10.50
2018-08-18T03:11:35.710Z,11.20
2018-08-18T03:12:46.176Z,11.00
2018-08-18T03:13:51.667Z,10.47
2018-08-18T03:14:57.057Z,10.50
2018-08-18T03:16:03.869Z,11.77
2018-08-18T03:17:11.373Z,10.40
2018-08-18T03:18:27.116Z,11.30
2018-08-18T03:19:32.524Z,11.20
2018-08-18T03:20:37.965Z,11.00
2018-08-18T03:21:44.205Z,10.60
2018-08-18T03:22:49.724Z,11.20
2018-08-18T03:24:12.925Z,11.17
2018-08-18T03:25:18.541Z,11.77
2018-08-18T03:26:30.650Z,12.33
2018-08-18T03:27:36.073Z,12.90
2018-08-18T03:28:49.520Z,12.10
2018-08-18T03:29:54.942Z,13.00
2018-08-18T03:31:00.446Z,12.10
2018-08-18T03:32:06.369Z,10.67
2018-08-18T03:33:11.816Z,11.93
2018-08-18T03:34:17.792Z,10.13
2018-08-18T03:35:23.228Z,10.80
2018-08-18T03:36:32.981Z,11.97
2018-08-18T03:37:38.412Z,11.07
2018-08-18T03:38:43.872Z,11.07
2018-08-18T03:39:49.350Z,10.00
2018-08-18T03:40:54.757Z,10.20
2018-08-18T03:42:01.584Z,11.10
2018-08-18T03:43:07.041Z,10.40
2018-08-18T03:44:12.611Z,10.67
2018-08-18T03:45:18.156Z,10.67
2018-08-18T03:46:23.861Z,11.10
2018-08-18T03:47:29.410Z,11.37
2018-08-18T03:48:34.820Z,12.37
2018-08-18T03:49:40.337Z,11.77
2018-08-18T03:50:49.613Z,12.00
2018-08-18T03:51:56.195Z,12.30
2018-08-18T03:53:01.672Z,12.93
2018-08-18T03:54:07.174Z,12.37
2018-08-18T03:55:12.692Z,11.73
2018-08-18T03:56:18.342Z,12.27
2018-08-18T03:57:23.926Z,10.30
2018-08-18T03:58:33.963Z,11.63
2018-08-18T03:59:39.373Z,10.77
2018-08-18T04:00:45.117Z,11.33
2018-08-18T04:01:54.099Z,10.40
2018-08-18T04:02:59.480Z,10.30
2018-08-18T04:04:05.289Z,12.13
2018-08-18T04:05:10.734Z,10.43
2018-08-18T04:06:16.344Z,11.30
2018-08-18T04:07:21.765Z,10.80
2018-08-18T04:08:27.366Z,11.13
2018-08-18T04:09:33.949Z,10.37
2018-08-18T04:10:39.372Z,10.77
2018-08-18T04:11:44.868Z,10.73
2018-08-18T04:12:50.344Z,10.67
2018-08-18T04:13:55.811Z,10.90
2018-08-18T04:15:01.229Z,12.30
2018-08-18T04:16:06.709Z,12.40
2018-08-18T04:17:29.937Z,11.30
2018-08-18T04:18:35.425Z,11.47
2018-08-18T04:19:40.846Z,11.40
2018-08-18T04:20:46.277Z,11.80
2018-08-18T04:21:54.110Z,11.17
2018-08-18T04:22:59.581Z,10.97
2018-08-18T04:24:05.073Z,10.50
2018-08-18T04:25:10.966Z,10.37
2018-08-18T04:26:16.516Z,11.30
2018-08-18T04:27:53.776Z,11.17
2018-08-18T04:28:59.277Z,9.77
2018-08-18T04:30:07.781Z,8.67
2018-08-18T04:31:13.752Z,8.60
2018-08-18T04:32:19.209Z,9.70
2018-08-18T04:33:24.630Z,10.37
2018-08-18T04:34:30.204Z,9.67
2018-08-18T04:35:35.652Z,9.37
2018-08-18T04:36:41.284Z,10.40
2018-08-18T04:37:46.743Z,10.30
2018-08-18T04:38:52.232Z,9.67
2018-08-18T04:39:57.713Z,10.10
2018-08-18T04:41:03.129Z,10.90
2018-08-18T04:42:09.034Z,9.80
2018-08-18T04:43:14.441Z,10.50
2018-08-18T04:44:19.954Z,11.00
2018-08-18T04:45:25.428Z,10.53
2018-08-18T04:46:30.918Z,11.13
2018-08-18T04:47:36.473Z,9.47
2018-08-18T04:48:41.958Z,9.93
2018-08-18T04:49:47.462Z,10.20
2018-08-18T04:50:52.894Z,10.50
2018-08-18T04:51:58.305Z,9.00
2018-08-18T04:53:03.717Z,9.97
2018-08-18T04:54:09.231Z,10.67
2018-08-18T04:55:15.723Z,9.80
2018-08-18T04:56:21.201Z,10.10
2018-08-18T04:57:26.677Z,11.10
2018-08-18T04:58:32.153Z,11.40
2018-08-18T04:59:37.616Z,11.67
2018-08-18T05:00:43.060Z,10.70
2018-08-18T05:01:48.515Z,10.70
2018-08-18T05:02:57.141Z,10.80
2018-08-18T05:04:10.097Z,11.00
2018-08-18T05:05:15.979Z,9.67
2018-08-18T05:06:25.509Z,10.20
2018-08-18T05:07:34.940Z,9.53
2018-08-18T05:08:40.405Z,9.60
2018-08-18T05:09:45.804Z,8.30
2018-08-18T05:10:51.265Z,8.73
2018-08-18T05:11:56.676Z,9.00
2018-08-18T05:13:02.078Z,10.20
2018-08-18T05:14:07.716Z,8.97
2018-08-18T05:15:13.234Z,9.63
2018-08-18T05:16:18.739Z,9.40
2018-08-18T05:17:24.132Z,9.20
2018-08-18T05:18:29.501Z,9.63
2018-08-18T05:19:34.980Z,9.30
2018-08-18T05:20:40.473Z,9.20
2018-08-18T05:21:45.996Z,9.17
2018-08-18T05:22:51.408Z,8.97
2018-08-18T05:23:56.842Z,9.30
2018-08-18T05:25:02.381Z,9.07
2018-08-18T05:26:08.037Z,10.10
2018-08-18T05:27:19.592Z,8.10
2018-08-18T05:28:25.034Z,8.60
2018-08-18T05:29:30.467Z,9.33
2018-08-18T05:30:35.962Z,9.17
2018-08-18T05:31:41.429Z,8.90
2018-08-18T05:32:46.934Z,8.80
2018-08-18T05:33:52.336Z,8.97
2018-08-18T05:34:57.973Z,8.80
2018-08-18T05:36:03.484Z,8.73
2018-08-18T05:37:08.956Z,9.17
2018-08-18T05:38:14.422Z,8.47
2018-08-18T05:39:19.899Z,8.70
2018-08-18T05:40:25.359Z,8.63
2018-08-18T05:41:30.848Z,7.40
2018-08-18T05:42:36.333Z,9.73
2018-08-18T05:43:41.886Z,9.30
2018-08-18T05:44:47.280Z,7.73
2018-08-18T05:45:52.737Z,8.70
2018-08-18T05:46:58.330Z,8.20
2018-08-18T05:48:04.010Z,9.00
2018-08-18T05:49:14.464Z,7.93
2018-08-18T05:50:20.231Z,8.60
2018-08-18T05:51:25.709Z,7.50
2018-08-18T05:52:31.192Z,7.50
2018-08-18T05:53:36.604Z,7.20
2018-08-18T05:54:42.085Z,7.50
2018-08-18T05:55:48.608Z,7.93
2018-08-18T05:56:54.115Z,7.80
2018-08-18T05:57:59.649Z,6.70
2018-08-18T05:59:05.202Z,6.40
2018-08-18T06:00:15.936Z,7.03
2018-08-18T06:01:35.810Z,6.67
2018-08-18T06:02:45.280Z,7.40
2018-08-18T06:03:53.277Z,6.83
2018-08-18T06:04:58.749Z,7.10
2018-08-18T06:06:04.341Z,7.20
2018-08-18T06:07:09.904Z,7.30
2018-08-18T06:08:15.459Z,6.50
2018-08-18T06:09:22.365Z,7.80
2018-08-18T06:10:27.834Z,6.97
2018-08-18T06:11:33.349Z,7.27
2018-08-18T06:12:38.801Z,6.07
2018-08-18T06:13:44.454Z,6.70
2018-08-18T06:14:49.879Z,7.97
2018-08-18T06:16:10.207Z,7.63
2018-08-18T06:17:19.781Z,6.87
2018-08-18T06:18:25.217Z,6.97
2018-08-18T06:19:30.677Z,6.13
2018-08-18T06:20:36.352Z,6.60
2018-08-18T06:21:41.902Z,6.60
2018-08-18T06:22:47.550Z,6.63
2018-08-18T06:23:53.092Z,6.47
2018-08-18T06:24:58.557Z,7.83
2018-08-18T06:26:04.525Z,6.57
2018-08-18T06:27:10.408Z,5.97
2018-08-18T06:28:16.190Z,6.37
2018-08-18T06:29:21.752Z,6.90
2018-08-18T06:30:27.337Z,6.50
2018-08-18T06:31:33.168Z,6.73
2018-08-18T06:32:38.718Z,5.60
2018-08-18T06:33:44.200Z,5.87
2018-08-18T06:34:49.826Z,6.90
2018-08-18T06:35:55.514Z,6.93
2018-08-18T06:37:01.717Z,5.83
2018-08-18T06:38:07.149Z,7.17
2018-08-18T06:39:12.601Z,6.60
2018-08-18T06:40:18.122Z,7.10
2018-08-18T06:41:23.605Z,6.77
2018-08-18T06:42:37.101Z,5.80
2018-08-18T06:43:42.599Z,6.57
2018-08-18T06:44:48.050Z,7.40
2018-08-18T06:45:53.555Z,7.13
2018-08-18T06:46:59.067Z,6.10
2018-08-18T06:48:24.078Z,7.40
2018-08-18T06:49:29.547Z,6.20
2018-08-18T06:50:40.094Z,6.97
2018-08-18T06:51:45.656Z,6.60
2018-08-18T06:52:51.254Z,6.17
2018-08-18T06:53:56.661Z,6.13
2018-08-18T06:55:02.341Z,6.37
2018-08-18T06:56:08.584Z,5.60
2018-08-18T06:57:14.102Z,6.40
2018-08-18T06:58:19.676Z,5.90
2018-08-18T06:59:25.256Z,5.67
2018-08-18T07:00:30.719Z,5.60
2018-08-18T07:01:36.193Z,4.83
2018-08-18T07:02:41.717Z,5.20
2018-08-18T07:03:47.997Z,5.10
2018-08-18T07:04:53.444Z,5.40
2018-08-18T07:05:59.037Z,4.87
2018-08-18T07:07:04.542Z,4.87
2018-08-18T07:08:10.072Z,5.13
2018-08-18T07:09:15.534Z,5.23
2018-08-18T07:10:35.056Z,4.90
2018-08-18T07:11:40.488Z,4.50
2018-08-18T07:12:50.013Z,4.40
2018-08-18T07:13:55.505Z,4.67
2018-08-18T07:15:17.497Z,4.60
2018-08-18T07:16:22.968Z,4.77
2018-08-18T07:17:28.524Z,4.67
2018-08-18T07:18:34.089Z,5.03
2018-08-18T07:19:40.538Z,4.63
2018-08-18T07:20:46.601Z,4.50
2018-08-18T07:21:52.229Z,5.27
2018-08-18T07:22:57.762Z,6.00
2018-08-18T07:24:03.321Z,5.70
2018-08-18T07:25:09.983Z,5.50
2018-08-18T07:26:15.648Z,4.30
2018-08-18T07:27:21.278Z,4.00
2018-08-18T07:28:26.748Z,4.00
2018-08-18T07:29:48.024Z,4.83
2018-08-18T07:30:54.444Z,5.57
2018-08-18T07:32:01.285Z,5.00
2018-08-18T07:33:09.161Z,4.63
2018-08-18T07:34:14.870Z,4.20
2018-08-18T07:35:20.653Z,4.20
2018-08-18T07:36:26.225Z,4.20
2018-08-18T07:37:32.181Z,5.10
2018-08-18T07:38:37.798Z,4.20
2018-08-18T07:39:43.493Z,3.30
2018-08-18T07:40:51.869Z,3.90
2018-08-18T07:41:57.640Z,4.20
2018-08-18T07:43:04.591Z,3.90
2018-08-18T07:44:10.320Z,3.73
2018-08-18T07:45:15.838Z,3.40
2018-08-18T07:46:21.338Z,3.80
2018-08-18T07:47:41.241Z,3.63
2018-08-18T07:48:46.866Z,3.93
2018-08-18T07:49:52.777Z,4.00
2018-08-18T07:50:58.520Z,3.80
2018-08-18T07:52:04.340Z,4.20
2018-08-18T07:53:10.528Z,4.17
2018-08-18T07:54:16.381Z,3.70
2018-08-18T07:55:21.938Z,4.10
2018-08-18T07:56:27.568Z,4.10
2018-08-18T07:57:33.350Z,4.77
2018-08-18T07:58:39.689Z,4.27
2018-08-18T07:59:45.437Z,3.83
2018-08-18T08:00:51.089Z,3.40
2018-08-18T08:01:56.913Z,3.80
2018-08-18T08:03:03.029Z,4.13
2018-08-18T08:04:08.689Z,4.03
2018-08-18T08:05:14.278Z,3.90
2018-08-18T08:06:19.887Z,3.87
2018-08-18T08:07:25.523Z,4.10
2018-08-18T08:08:37.604Z,4.07
2018-08-18T08:09:43.850Z,4.47
2018-08-18T08:10:49.321Z,4.47
2018-08-18T08:11:54.861Z,3.80
2018-08-18T08:13:00.545Z,3.70
2018-08-18T08:14:05.989Z,3.70
2018-08-18T08:15:11.596Z,3.73
2018-08-18T08:16:17.237Z,3.60
2018-08-18T08:17:22.804Z,3.80
2018-08-18T08:18:28.499Z,3.70
2018-08-18T08:19:34.058Z,4.00
2018-08-18T08:20:39.670Z,3.73
2018-08-18T08:21:45.521Z,4.00
2018-08-18T08:22:53.388Z,3.87
2018-08-18T08:23:58.933Z,3.70
2018-08-18T08:25:05.028Z,3.80
2018-08-18T08:26:10.541Z,4.27
2018-08-18T08:27:16.403Z,4.93
2018-08-18T08:28:21.961Z,4.03
2018-08-18T08:29:31.549Z,3.90
2018-08-18T08:30:37.029Z,4.83
2018-08-18T08:31:42.708Z,4.50
2018-08-18T08:32:48.731Z,3.57
2018-08-18T08:33:54.544Z,3.50
2018-08-18T08:35:03.245Z,4.17
2018-08-18T08:36:12.970Z,4.00
2018-08-18T08:37:18.714Z,4.20
2018-08-18T08:38:24.565Z,3.97
2018-08-18T08:39:30.441Z,5.10
2018-08-18T08:40:36.461Z,4.17
2018-08-18T08:41:42.099Z,4.10
2018-08-18T08:42:47.631Z,4.73
2018-08-18T08:43:53.182Z,4.43
2018-08-18T08:44:58.839Z,4.50
2018-08-18T08:46:04.581Z,4.37
2018-08-18T08:47:12.904Z,4.53
2018-08-18T08:48:18.762Z,5.20
2018-08-18T08:49:24.264Z,3.80
2018-08-18T08:50:29.735Z,4.03
2018-08-18T08:51:35.201Z,4.07
2018-08-18T08:52:45.758Z,4.10
2018-08-18T08:53:52.320Z,4.00
2018-08-18T08:54:57.896Z,4.30
2018-08-18T08:56:03.309Z,3.50
2018-08-18T08:57:11.645Z,4.37
2018-08-18T08:58:17.106Z,3.57
2018-08-18T08:59:22.674Z,4.70
2018-08-18T09:00:28.152Z,4.80
2018-08-18T09:01:33.932Z,3.73
2018-08-18T09:02:39.369Z,4.03
2018-08-18T09:03:44.874Z,3.70
2018-08-18T09:04:50.344Z,3.80
2018-08-18T09:05:55.812Z,6.00
2018-08-18T09:07:01.336Z,4.07
2018-08-18T09:08:06.797Z,4.30
2018-08-18T09:09:12.325Z,3.33
2018-08-18T09:10:18.322Z,4.17
2018-08-18T09:11:23.813Z,3.23
2018-08-18T09:12:29.232Z,3.40
2018-08-18T09:13:34.691Z,2.90
2018-08-18T09:14:40.138Z,3.03
2018-08-18T09:15:45.811Z,3.10
2018-08-18T09:16:51.601Z,2.77
2018-08-18T09:17:57.070Z,3.10
2018-08-18T09:19:02.565Z,2.40
2018-08-18T09:20:15.977Z,2.43
2018-08-18T09:21:21.385Z,2.90
2018-08-18T09:22:26.929Z,2.50
2018-08-18T09:23:36.431Z,2.10
2018-08-18T09:24:41.900Z,2.30
2018-08-18T09:25:47.406Z,2.20
2018-08-18T09:26:54.028Z,2.40
2018-08-18T09:28:03.676Z,1.90
2018-08-18T09:29:09.114Z,2.23
2018-08-18T09:30:14.525Z,2.60
2018-08-18T09:31:20.010Z,3.10
2018-08-18T09:32:25.463Z,2.67
2018-08-18T09:33:30.938Z,2.50
2018-08-18T09:34:41.540Z,2.33
2018-08-18T09:36:00.578Z,2.60
2018-08-18T09:37:07.593Z,2.47
2018-08-18T09:38:13.160Z,2.00
2018-08-18T09:39:26.053Z,2.37
2018-08-18T09:40:32.777Z,2.13
2018-08-18T09:41:39.028Z,2.77
2018-08-18T09:42:44.488Z,1.93
2018-08-18T09:43:49.974Z,2.27
2018-08-18T09:44:55.394Z,2.37
2018-08-18T09:46:01.033Z,1.87
2018-08-18T09:47:06.885Z,2.30
2018-08-18T09:48:12.580Z,2.03
2018-08-18T09:49:18.151Z,2.10
2018-08-18T09:50:23.716Z,1.87
2018-08-18T09:51:29.166Z,1.83
2018-08-18T09:52:34.636Z,1.90
2018-08-18T09:53:40.147Z,3.10
2018-08-18T09:54:45.629Z,2.10
2018-08-18T09:55:51.614Z,2.43
2018-08-18T09:56:57.813Z,2.30
2018-08-18T09:58:03.269Z,2.50
2018-08-18T09:59:08.723Z,1.87
2018-08-18T10:00:14.781Z,1.60
2018-08-18T10:01:20.266Z,1.50
2018-08-18T10:02:25.752Z,1.80
2018-08-18T10:03:31.215Z,2.30
2018-08-18T10:04:36.655Z,2.40
2018-08-18T10:05:42.558Z,1.60
2018-08-18T10:06:48.028Z,2.03
2018-08-18T10:07:53.446Z,1.90
2018-08-18T10:08:58.904Z,1.07
2018-08-18T10:10:05.014Z,2.53
2018-08-18T10:11:10.433Z,1.90
2018-08-18T10:12:16.072Z,1.50
2018-08-18T10:13:21.541Z,1.70
2018-08-18T10:14:27.049Z,1.90
2018-08-18T10:15:32.568Z,1.37
2018-08-18T10:16:38.601Z,2.00
2018-08-18T10:17:44.105Z,1.90
2018-08-18T10:18:50.288Z,1.70
2018-08-18T10:19:55.745Z,1.23
2018-08-18T10:21:01.354Z,1.90
2018-08-18T10:22:08.172Z,1.30
2018-08-18T10:23:13.917Z,1.60
2018-08-18T10:24:19.381Z,1.60
2018-08-18T10:25:24.886Z,1.57
2018-08-18T10:26:30.344Z,1.77
2018-08-18T10:27:35.811Z,2.20
2018-08-18T10:28:41.632Z,1.93
2018-08-18T10:29:47.133Z,1.80
2018-08-18T10:30:52.609Z,1.73
2018-08-18T10:31:58.842Z,1.70
2018-08-18T10:33:05.584Z,1.77
2018-08-18T10:34:11.121Z,1.73
2018-08-18T10:35:20.931Z,2.63
2018-08-18T10:36:26.397Z,2.77
2018-08-18T10:37:31.848Z,2.30
2018-08-18T10:38:37.277Z,1.97
2018-08-18T10:39:42.929Z,1.90
2018-08-18T10:40:48.673Z,3.13
2018-08-18T10:42:07.633Z,2.73
2018-08-18T10:43:14.670Z,1.93
2018-08-18T10:44:21.746Z,1.50
2018-08-18T10:45:27.237Z,1.40
2018-08-18T10:46:33.209Z,1.60
2018-08-18T10:47:38.688Z,1.40
2018-08-18T10:48:44.506Z,1.90
2018-08-18T10:50:06.776Z,1.80
2018-08-18T10:51:30.844Z,1.73
2018-08-18T10:52:53.157Z,1.80
2018-08-18T10:54:00.793Z,1.50
2018-08-18T10:55:08.458Z,1.30
2018-08-18T10:56:13.977Z,1.53
2018-08-18T10:57:36.283Z,1.80
2018-08-18T10:59:02.801Z,2.03
2018-08-18T11:00:15.046Z,1.53
2018-08-18T11:01:20.514Z,1.20
2018-08-18T11:02:34.849Z,1.97
2018-08-18T11:03:40.460Z,1.80
2018-08-18T11:04:45.885Z,1.30
2018-08-18T11:05:51.513Z,1.27
2018-08-18T11:06:56.932Z,1.40
2018-08-18T11:08:06.389Z,1.80
2018-08-18T11:09:11.913Z,1.50
2018-08-18T11:10:17.393Z,1.40
2018-08-18T11:11:22.805Z,1.90
2018-08-18T11:12:28.200Z,1.53
2018-08-18T11:13:33.666Z,1.93
2018-08-18T11:14:40.021Z,1.20
2018-08-18T11:15:45.753Z,1.73
2018-08-18T11:16:51.228Z,1.30
2018-08-18T11:17:57.253Z,1.77
2018-08-18T11:19:02.693Z,1.60
2018-08-18T11:20:24.908Z,1.60
2018-08-18T11:21:34.861Z,1.50
2018-08-18T11:23:17.293Z,1.50
2018-08-18T11:24:22.826Z,1.80
2018-08-18T11:25:34.305Z,1.60
2018-08-18T11:26:41.046Z,1.87
2018-08-18T11:27:46.609Z,1.77
2018-08-18T11:28:52.387Z,1.77
2018-08-18T11:29:57.776Z,1.50
2018-08-18T11:31:03.253Z,1.60
2018-08-18T11:32:08.700Z,1.53
2018-08-18T11:33:46.750Z,1.50
2018-08-18T11:34:52.219Z,1.50
2018-08-18T11:35:57.627Z,1.83
2018-08-18T11:37:06.436Z,1.77
2018-08-18T11:38:16.867Z,1.80
2018-08-18T11:39:22.413Z,2.10
2018-08-18T11:40:28.873Z,1.87
2018-08-18T11:41:34.366Z,2.40
2018-08-18T11:42:39.865Z,1.70
2018-08-18T11:43:50.466Z,1.90
2018-08-18T11:44:55.950Z,1.80
2018-08-18T11:46:01.413Z,1.90
2018-08-18T11:47:07.134Z,1.63
2018-08-18T11:48:17.704Z,1.93
2018-08-18T11:49:23.093Z,2.10
2018-08-18T11:50:29.086Z,1.80
2018-08-18T11:51:42.285Z,1.70
2018-08-18T11:52:50.477Z,1.97
2018-08-18T11:54:02.565Z,1.80
2018-08-18T11:55:08.200Z,2.03
2018-08-18T11:56:13.761Z,2.20
2018-08-18T11:57:19.156Z,2.20
2018-08-18T11:58:25.594Z,1.90
2018-08-18T11:59:31.156Z,1.80
2018-08-18T12:00:46.765Z,2.00
2018-08-18T12:01:54.883Z,2.53
2018-08-18T12:03:09.077Z,1.87
2018-08-18T12:04:14.638Z,2.13
2018-08-18T12:05:20.208Z,2.20
2018-08-18T12:06:25.673Z,1.80
2018-08-18T12:07:31.100Z,1.70
2018-08-18T12:08:37.220Z,1.67
2018-08-18T12:09:46.657Z,2.37
2018-08-18T12:10:54.229Z,2.80
2018-08-18T12:11:59.566Z,2.47
2018-08-18T12:13:05.317Z,2.33
2018-08-18T12:14:10.753Z,1.60
2018-08-18T12:15:16.250Z,1.77
2018-08-18T12:16:21.911Z,1.80
2018-08-18T12:17:27.412Z,1.97
2018-08-18T12:18:33.740Z,1.80
2018-08-18T12:19:39.458Z,1.50
2018-08-18T12:20:44.937Z,2.40
2018-08-18T12:21:50.392Z,2.50
2018-08-18T12:22:56.342Z,1.70
2018-08-18T12:24:01.773Z,2.60
2018-08-18T12:25:08.196Z,2.27
2018-08-18T12:26:19.808Z,2.30
2018-08-18T12:27:25.300Z,2.10
2018-08-18T12:28:35.705Z,2.37
2018-08-18T12:29:41.302Z,2.50
2018-08-18T12:30:46.733Z,1.80
2018-08-18T12:31:52.201Z,2.87
2018-08-18T12:32:57.736Z,2.70
2018-08-18T12:34:04.346Z,1.90
2018-08-18T12:35:10.090Z,2.37
2018-08-18T12:36:15.706Z,1.93
2018-08-18T12:37:24.505Z,2.63
2018-08-18T12:38:30.238Z,2.70
2018-08-18T12:39:35.704Z,2.60
2018-08-18T12:40:41.274Z,2.10
2018-08-18T12:41:46.820Z,2.10
2018-08-18T12:42:52.328Z,2.57
2018-08-18T12:43:58.875Z,2.37
2018-08-18T12:45:04.369Z,2.40
2018-08-18T12:46:12.754Z,2.37
2018-08-18T12:47:18.285Z,3.37
2018-08-18T12:48:23.905Z,2.90
2018-08-18T12:49:29.350Z,2.23
2018-08-18T12:50:34.818Z,2.40
2018-08-18T12:51:40.288Z,2.80
2018-08-18T12:52:49.856Z,4.30
2018-08-18T12:53:56.725Z,2.80
2018-08-18T12:55:02.144Z,2.53
2018-08-18T12:56:08.340Z,3.20
2018-08-18T12:57:13.895Z,3.30
2018-08-18T12:58:19.354Z,2.63
2018-08-18T12:59:24.760Z,2.57
2018-08-18T13:00:30.178Z,2.70
2018-08-18T13:01:43.137Z,2.70
2018-08-18T13:02:52.246Z,2.50
2018-08-18T13:03:57.705Z,3.20
2018-08-18T13:05:03.083Z,2.53
2018-08-18T13:06:09.997Z,2.33
2018-08-18T13:07:15.478Z,2.87
2018-08-18T13:08:20.956Z,3.23
2018-08-18T13:09:27.537Z,3.37
2018-08-18T13:10:33.025Z,3.40
2018-08-18T13:11:38.659Z,4.43
2018-08-18T13:12:44.156Z,2.97
2018-08-18T13:13:51.620Z,3.67
2018-08-18T13:14:57.096Z,3.57
2018-08-18T13:16:02.598Z,3.53
2018-08-18T13:17:08.365Z,3.40
2018-08-18T13:18:13.837Z,3.30
2018-08-18T13:19:21.829Z,3.40
2018-08-18T13:20:27.841Z,3.10
2018-08-18T13:21:33.298Z,3.80
2018-08-18T13:22:38.794Z,2.90
2018-08-18T13:23:44.431Z,3.50
2018-08-18T13:24:49.916Z,2.93
2018-08-18T13:25:55.701Z,3.40
2018-08-18T13:27:02.128Z,3.40
2018-08-18T13:28:07.868Z,3.60
2018-08-18T13:29:13.360Z,3.60
2018-08-18T13:30:19.944Z,3.30
2018-08-18T13:31:30.654Z,3.10
2018-08-18T13:32:36.541Z,2.73
2018-08-18T13:33:44.753Z,2.97
2018-08-18T13:34:50.209Z,3.20
2018-08-18T13:35:55.702Z,3.50
2018-08-18T13:37:01.189Z,3.20
2018-08-18T13:38:11.870Z,3.40
2018-08-18T13:39:20.368Z,3.83
2018-08-18T13:40:27.968Z,3.67
2018-08-18T13:41:33.342Z,2.90
2018-08-18T13:42:39.308Z,2.80
2018-08-18T13:43:48.069Z,3.37
2018-08-18T13:44:54.765Z,3.00
2018-08-18T13:46:00.297Z,3.20
2018-08-18T13:47:05.802Z,3.30
2018-08-18T13:48:12.872Z,3.57
2018-08-18T13:49:23.738Z,3.17
2018-08-18T13:50:29.322Z,3.57
2018-08-18T13:51:34.821Z,3.60
2018-08-18T13:52:49.711Z,3.30
2018-08-18T13:53:56.157Z,2.80
2018-08-18T13:55:01.769Z,3.57
2018-08-18T13:56:09.107Z,3.53
2018-08-18T13:57:14.720Z,3.40
2018-08-18T13:58:21.158Z,3.23
2018-08-18T13:59:40.093Z,3.40
2018-08-18T14:00:45.520Z,3.80
2018-08-18T14:01:50.972Z,3.93
2018-08-18T14:02:56.413Z,3.03
2018-08-18T14:04:01.898Z,2.77
2018-08-18T14:05:10.946Z,4.13
2018-08-18T14:06:16.437Z,3.70
2018-08-18T14:07:21.920Z,2.73
2018-08-18T14:08:27.378Z,3.33
2018-08-18T14:09:32.810Z,3.93
2018-08-18T14:10:38.433Z,3.00
2018-08-18T14:11:44.208Z,4.17
2018-08-18T14:12:49.670Z,3.90
2018-08-18T14:13:55.233Z,5.70
2018-08-18T14:15:00.664Z,4.10
2018-08-18T14:16:06.375Z,3.83
2018-08-18T14:17:12.899Z,3.07
2018-08-18T14:18:18.305Z,2.93
2018-08-18T14:19:23.701Z,3.10
2018-08-18T14:20:30.026Z,2.73
2018-08-18T14:21:35.482Z,2.97
2018-08-18T14:22:40.978Z,3.50
2018-08-18T14:23:46.419Z,3.10
2018-08-18T14:24:51.876Z,2.80
2018-08-18T14:25:57.344Z,3.50
2018-08-18T14:27:05.325Z,3.47
2018-08-18T14:28:10.920Z,3.10
2018-08-18T14:29:16.378Z,3.90
2018-08-18T14:30:21.885Z,4.07
2018-08-18T14:31:27.317Z,3.37
2018-08-18T14:32:32.851Z,4.70
2018-08-18T14:33:38.443Z,3.50
2018-08-18T14:34:51.435Z,3.77
2018-08-18T14:36:05.835Z,3.67
2018-08-18T14:37:13.936Z,3.90
2018-08-18T14:38:19.456Z,4.83
2018-08-18T14:39:37.256Z,4.10
2018-08-18T14:40:43.089Z,5.43
2018-08-18T14:41:48.604Z,4.43
2018-08-18T14:42:54.101Z,4.30
2018-08-18T14:43:59.569Z,4.27
2018-08-18T14:45:05.170Z,3.90
2018-08-18T14:46:13.748Z,3.90
2018-08-18T14:47:19.174Z,4.00